Atkins, Arkansas
Current Conditions -  °F | °C
As of 5:53 PM on Wednesday 26 Nov 2014 (Local Time) from KRUE Reporting Station
Clear Clear  
Wind Chill: 51°   Ceiling: Unl
Heat Index: 51°   Visibility: 10mi
Dew Point: 28°   Wind: 5mph
Humidity: 41%   Direction: NA
Pressure: 30.13"   Gusts: NA
Location:  35.25°N, 92.94°W
Report Text: KRUE 262353Z AUTO VRB04KT 10SM CLR 11/M02 A3013 RMK AO2 SLP202 T01061022 10150 20094 51029
Loading
Personal Weather Stations






























Interactive Weather Map New forecast layout! Learn more

10-Day Weather Forecast

Advertisements
Track Severe Weather on mobile